Terminal Aerodrome Forecast
Issued by NWS Detroit/Pontiac, MI

Home | Current Version | Previous Version | Text Only | Print | Product List | Glossary On
Versions: 1 2 3 4 5 6 7 8 9 10 11 12 13 14 15 16 17 18 19 20 21 22 23 24 25 26 27
000
FTUS43 KDTX 011100
TAFDTW
TAF
KDTW 011140Z 0112/0218 18003KT 4SM BR SCT007
      TEMPO 0112/0114 2SM BR BKN007
     FM011400 21013KT P6SM BKN015
     FM011600 21013G20KT P6SM SCT035 BKN070 PROB30 0122/0124 2SM
      TSRA OVC025CB
     FM020000 23010KT P6SM SCT035 BKN070 OVC200
     FM020700 23005KT 3SM -SHRA BR OVC015
     FM021300 27007KT P6SM SCT020 BKN040=

USA.gov is the U.S. government's official web portal to all federal, state and local government web resources and services.